sensor_id;sensor_type;location;lat;lon;timestamp;P1;durP1;ratioP1;P2;durP2;ratioP2
76113;SDS011;64845;53.086;5.834;2023-02-25T00:00:05;16.25;;;2.33;;
76113;SDS011;64845;53.086;5.834;2023-02-25T00:02:41;15.30;;;2.30;;
76113;SDS011;64845;53.086;5.834;2023-02-25T00:05:07;21.42;;;2.92;;
76113;SDS011;64845;53.086;5.834;2023-02-25T00:07:33;24.00;;;3.65;;
76113;SDS011;64845;53.086;5.834;2023-02-25T00:09:58;15.82;;;2.85;;
76113;SDS011;64845;53.086;5.834;2023-02-25T00:12:23;20.65;;;2.88;;
76113;SDS011;64845;53.086;5.834;2023-02-25T00:14:49;27.52;;;3.83;;
76113;SDS011;64845;53.086;5.834;2023-02-25T00:17:14;26.15;;;3.47;;
76113;SDS011;64845;53.086;5.834;2023-02-25T00:19:40;18.60;;;2.63;;
76113;SDS011;64845;53.086;5.834;2023-02-25T00:22:05;36.22;;;4.47;;
76113;SDS011;64845;53.086;5.834;2023-02-25T00:24:30;22.27;;;3.53;;
76113;SDS011;64845;53.086;5.834;2023-02-25T00:26:56;19.17;;;3.55;;
76113;SDS011;64845;53.086;5.834;2023-02-25T00:29:21;27.65;;;3.90;;
76113;SDS011;64845;53.086;5.834;2023-02-25T00:31:47;37.63;;;3.90;;
76113;SDS011;64845;53.086;5.834;2023-02-25T00:34:12;31.42;;;3.70;;
76113;SDS011;64845;53.086;5.834;2023-02-25T00:36:37;32.75;;;3.70;;
76113;SDS011;64845;53.086;5.834;2023-02-25T00:39:04;25.83;;;4.30;;
76113;SDS011;64845;53.086;5.834;2023-02-25T00:41:29;24.05;;;2.80;;
76113;SDS011;64845;53.086;5.834;2023-02-25T00:43:56;27.42;;;3.65;;
76113;SDS011;64845;53.086;5.834;2023-02-25T00:46:23;19.90;;;3.67;;
76113;SDS011;64845;53.086;5.834;2023-02-25T00:48:49;25.35;;;3.35;;
76113;SDS011;64845;53.086;5.834;2023-02-25T00:51:19;18.02;;;2.55;;
76113;SDS011;64845;53.086;5.834;2023-02-25T00:53:46;19.20;;;2.78;;
76113;SDS011;64845;53.086;5.834;2023-02-25T00:56:13;17.38;;;2.65;;
76113;SDS011;64845;53.086;5.834;2023-02-25T00:58:40;11.95;;;2.35;;
76113;SDS011;64845;53.086;5.834;2023-02-25T01:01:15;19.75;;;2.75;;
76113;SDS011;64845;53.086;5.834;2023-02-25T01:03:47;7.75;;;1.92;;
76113;SDS011;64845;53.086;5.834;2023-02-25T01:06:13;17.33;;;2.33;;
76113;SDS011;64845;53.086;5.834;2023-02-25T01:08:39;22.75;;;3.70;;
76113;SDS011;64845;53.086;5.834;2023-02-25T01:13:45;25.63;;;2.88;;
76113;SDS011;64845;53.086;5.834;2023-02-25T01:16:16;27.02;;;3.17;;
76113;SDS011;64845;53.086;5.834;2023-02-25T01:18:43;16.45;;;2.90;;
76113;SDS011;64845;53.086;5.834;2023-02-25T01:21:19;20.60;;;2.90;;
76113;SDS011;64845;53.086;5.834;2023-02-25T01:26:21;26.60;;;3.05;;
76113;SDS011;64845;53.086;5.834;2023-02-25T01:28:47;20.55;;;2.72;;
76113;SDS011;64845;53.086;5.834;2023-02-25T01:31:16;29.70;;;3.60;;
76113;SDS011;64845;53.086;5.834;2023-02-25T01:33:42;25.80;;;3.45;;
76113;SDS011;64845;53.086;5.834;2023-02-25T01:36:08;16.45;;;2.90;;
76113;SDS011;64845;53.086;5.834;2023-02-25T01:38:34;11.85;;;1.98;;
76113;SDS011;64845;53.086;5.834;2023-02-25T01:41:00;25.77;;;3.47;;
76113;SDS011;64845;53.086;5.834;2023-02-25T01:43:25;19.40;;;2.55;;
76113;SDS011;64845;53.086;5.834;2023-02-25T01:45:52;15.00;;;2.78;;
76113;SDS011;64845;53.086;5.834;2023-02-25T01:48:19;25.05;;;3.67;;
76113;SDS011;64845;53.086;5.834;2023-02-25T01:51:06;24.38;;;3.20;;
76113;SDS011;64845;53.086;5.834;2023-02-25T01:53:44;20.83;;;3.08;;
76113;SDS011;64845;53.086;5.834;2023-02-25T01:56:12;17.45;;;2.75;;
76113;SDS011;64845;53.086;5.834;2023-02-25T01:58:40;18.77;;;3.33;;
76113;SDS011;64845;53.086;5.834;2023-02-25T02:01:10;24.58;;;3.25;;
76113;SDS011;64845;53.086;5.834;2023-02-25T02:03:38;22.45;;;3.38;;
76113;SDS011;64845;53.086;5.834;2023-02-25T02:08:35;19.65;;;3.03;;
76113;SDS011;64845;53.086;5.834;2023-02-25T02:11:02;15.23;;;2.85;;
76113;SDS011;64845;53.086;5.834;2023-02-25T02:13:28;19.30;;;3.10;;
76113;SDS011;64845;53.086;5.834;2023-02-25T02:18:52;28.50;;;3.80;;
76113;SDS011;64845;53.086;5.834;2023-02-25T02:24:05;16.52;;;2.80;;
76113;SDS011;64845;53.086;5.834;2023-02-25T02:29:40;24.67;;;2.63;;
76113;SDS011;64845;53.086;5.834;2023-02-25T02:32:33;20.20;;;3.35;;
76113;SDS011;64845;53.086;5.834;2023-02-25T02:37:39;25.73;;;2.90;;
76113;SDS011;64845;53.086;5.834;2023-02-25T02:43:49;25.13;;;2.50;;
76113;SDS011;64845;53.086;5.834;2023-02-25T02:46:26;23.00;;;4.55;;
76113;SDS011;64845;53.086;5.834;2023-02-25T02:49:00;16.45;;;3.33;;
76113;SDS011;64845;53.086;5.834;2023-02-25T02:51:50;13.18;;;2.13;;
76113;SDS011;64845;53.086;5.834;2023-02-25T02:54:31;20.35;;;2.45;;
76113;SDS011;64845;53.086;5.834;2023-02-25T02:57:01;14.60;;;2.47;;
76113;SDS011;64845;53.086;5.834;2023-02-25T02:59:32;18.35;;;2.55;;
76113;SDS011;64845;53.086;5.834;2023-02-25T03:02:11;15.75;;;2.50;;
76113;SDS011;64845;53.086;5.834;2023-02-25T03:04:41;21.33;;;2.80;;
76113;SDS011;64845;53.086;5.834;2023-02-25T03:07:09;18.38;;;2.20;;
76113;SDS011;64845;53.086;5.834;2023-02-25T03:09:46;14.48;;;2.28;;
76113;SDS011;64845;53.086;5.834;2023-02-25T03:12:14;17.02;;;2.17;;
76113;SDS011;64845;53.086;5.834;2023-02-25T03:14:40;16.83;;;2.70;;
76113;SDS011;64845;53.086;5.834;2023-02-25T03:17:07;27.02;;;3.25;;
76113;SDS011;64845;53.086;5.834;2023-02-25T03:19:39;17.73;;;2.90;;
76113;SDS011;64845;53.086;5.834;2023-02-25T03:22:16;24.33;;;2.90;;
76113;SDS011;64845;53.086;5.834;2023-02-25T03:24:48;26.73;;;3.13;;
76113;SDS011;64845;53.086;5.834;2023-02-25T03:27:38;22.13;;;3.70;;
76113;SDS011;64845;53.086;5.834;2023-02-25T03:32:39;17.75;;;2.72;;
76113;SDS011;64845;53.086;5.834;2023-02-25T03:35:10;26.42;;;2.80;;
76113;SDS011;64845;53.086;5.834;2023-02-25T03:37:39;19.23;;;3.08;;
76113;SDS011;64845;53.086;5.834;2023-02-25T03:40:08;23.08;;;3.50;;
76113;SDS011;64845;53.086;5.834;2023-02-25T03:42:40;18.77;;;2.65;;
76113;SDS011;64845;53.086;5.834;2023-02-25T03:45:10;20.98;;;3.38;;
76113;SDS011;64845;53.086;5.834;2023-02-25T03:47:37;21.48;;;3.35;;
76113;SDS011;64845;53.086;5.834;2023-02-25T03:50:14;15.10;;;3.03;;
76113;SDS011;64845;53.086;5.834;2023-02-25T03:52:49;27.30;;;3.95;;
76113;SDS011;64845;53.086;5.834;2023-02-25T03:55:15;29.40;;;3.85;;
76113;SDS011;64845;53.086;5.834;2023-02-25T03:57:42;26.58;;;4.15;;
76113;SDS011;64845;53.086;5.834;2023-02-25T04:00:14;27.45;;;3.08;;
76113;SDS011;64845;53.086;5.834;2023-02-25T04:02:49;31.45;;;3.72;;
76113;SDS011;64845;53.086;5.834;2023-02-25T04:05:16;25.80;;;2.88;;
76113;SDS011;64845;53.086;5.834;2023-02-25T04:07:42;21.40;;;3.00;;
76113;SDS011;64845;53.086;5.834;2023-02-25T04:10:08;17.35;;;3.45;;
76113;SDS011;64845;53.086;5.834;2023-02-25T04:12:35;17.58;;;2.38;;
76113;SDS011;64845;53.086;5.834;2023-02-25T04:15:00;16.80;;;2.33;;
76113;SDS011;64845;53.086;5.834;2023-02-25T04:17:26;17.55;;;2.60;;
76113;SDS011;64845;53.086;5.834;2023-02-25T04:19:52;14.98;;;2.60;;
76113;SDS011;64845;53.086;5.834;2023-02-25T04:22:17;20.95;;;3.22;;
76113;SDS011;64845;53.086;5.834;2023-02-25T04:24:42;19.10;;;2.80;;
76113;SDS011;64845;53.086;5.834;2023-02-25T04:27:08;20.85;;;2.00;;
76113;SDS011;64845;53.086;5.834;2023-02-25T04:29:33;19.98;;;2.33;;
76113;SDS011;64845;53.086;5.834;2023-02-25T04:31:59;19.13;;;2.30;;
76113;SDS011;64845;53.086;5.834;2023-02-25T04:34:24;15.68;;;2.35;;
76113;SDS011;64845;53.086;5.834;2023-02-25T04:36:50;15.45;;;2.28;;
76113;SDS011;64845;53.086;5.834;2023-02-25T04:39:15;15.82;;;2.42;;
76113;SDS011;64845;53.086;5.834;2023-02-25T04:41:42;12.88;;;2.08;;
76113;SDS011;64845;53.086;5.834;2023-02-25T04:44:08;9.85;;;1.38;;
76113;SDS011;64845;53.086;5.834;2023-02-25T04:46:35;12.77;;;2.00;;
76113;SDS011;64845;53.086;5.834;2023-02-25T04:49:02;14.75;;;1.80;;
76113;SDS011;64845;53.086;5.834;2023-02-25T04:51:29;7.90;;;1.58;;
76113;SDS011;64845;53.086;5.834;2023-02-25T04:53:54;11.15;;;1.77;;
76113;SDS011;64845;53.086;5.834;2023-02-25T04:56:19;12.15;;;2.03;;
76113;SDS011;64845;53.086;5.834;2023-02-25T04:58:45;11.90;;;1.70;;
76113;SDS011;64845;53.086;5.834;2023-02-25T05:01:11;9.40;;;1.58;;
76113;SDS011;64845;53.086;5.834;2023-02-25T05:03:37;12.77;;;1.80;;
76113;SDS011;64845;53.086;5.834;2023-02-25T05:06:03;10.57;;;1.75;;
76113;SDS011;64845;53.086;5.834;2023-02-25T05:08:29;11.95;;;1.80;;
76113;SDS011;64845;53.086;5.834;2023-02-25T05:10:55;12.20;;;2.13;;
76113;SDS011;64845;53.086;5.834;2023-02-25T05:13:21;11.75;;;1.45;;
76113;SDS011;64845;53.086;5.834;2023-02-25T05:15:47;16.67;;;2.17;;
76113;SDS011;64845;53.086;5.834;2023-02-25T05:18:13;12.70;;;1.65;;
76113;SDS011;64845;53.086;5.834;2023-02-25T05:20:42;12.77;;;1.33;;
76113;SDS011;64845;53.086;5.834;2023-02-25T05:25:35;16.15;;;2.47;;
76113;SDS011;64845;53.086;5.834;2023-02-25T05:28:05;14.07;;;2.20;;
76113;SDS011;64845;53.086;5.834;2023-02-25T05:30:31;9.43;;;1.63;;
76113;SDS011;64845;53.086;5.834;2023-02-25T05:32:56;15.32;;;1.92;;
76113;SDS011;64845;53.086;5.834;2023-02-25T05:35:22;17.92;;;2.20;;
76113;SDS011;64845;53.086;5.834;2023-02-25T05:37:47;25.58;;;3.13;;
76113;SDS011;64845;53.086;5.834;2023-02-25T05:40:13;16.10;;;1.90;;
76113;SDS011;64845;53.086;5.834;2023-02-25T05:42:38;17.40;;;2.35;;
76113;SDS011;64845;53.086;5.834;2023-02-25T05:45:05;17.55;;;1.98;;
76113;SDS011;64845;53.086;5.834;2023-02-25T05:47:32;13.90;;;2.40;;
76113;SDS011;64845;53.086;5.834;2023-02-25T05:49:57;22.50;;;2.30;;
76113;SDS011;64845;53.086;5.834;2023-02-25T05:52:23;19.50;;;2.10;;
76113;SDS011;64845;53.086;5.834;2023-02-25T05:54:48;12.73;;;2.35;;
76113;SDS011;64845;53.086;5.834;2023-02-25T05:57:13;13.95;;;1.90;;
76113;SDS011;64845;53.086;5.834;2023-02-25T05:59:40;16.98;;;2.28;;
76113;SDS011;64845;53.086;5.834;2023-02-25T06:02:05;14.50;;;1.90;;
76113;SDS011;64845;53.086;5.834;2023-02-25T06:04:30;14.43;;;1.95;;
76113;SDS011;64845;53.086;5.834;2023-02-25T06:06:56;16.83;;;1.83;;
76113;SDS011;64845;53.086;5.834;2023-02-25T06:09:21;8.50;;;1.27;;
76113;SDS011;64845;53.086;5.834;2023-02-25T06:11:47;7.55;;;1.02;;
76113;SDS011;64845;53.086;5.834;2023-02-25T06:14:13;5.00;;;1.20;;
76113;SDS011;64845;53.086;5.834;2023-02-25T06:16:39;6.25;;;1.10;;
76113;SDS011;64845;53.086;5.834;2023-02-25T06:19:05;5.25;;;1.23;;
76113;SDS011;64845;53.086;5.834;2023-02-25T06:21:32;6.15;;;1.10;;
76113;SDS011;64845;53.086;5.834;2023-02-25T06:24:00;7.22;;;1.10;;
76113;SDS011;64845;53.086;5.834;2023-02-25T06:26:26;8.98;;;0.90;;
76113;SDS011;64845;53.086;5.834;2023-02-25T06:28:52;6.55;;;0.95;;
76113;SDS011;64845;53.086;5.834;2023-02-25T06:31:19;8.35;;;1.20;;
76113;SDS011;64845;53.086;5.834;2023-02-25T06:33:46;8.90;;;1.13;;
76113;SDS011;64845;53.086;5.834;2023-02-25T06:36:12;4.88;;;1.00;;
76113;SDS011;64845;53.086;5.834;2023-02-25T06:38:39;3.50;;;0.93;;
76113;SDS011;64845;53.086;5.834;2023-02-25T06:41:08;8.88;;;1.13;;
76113;SDS011;64845;53.086;5.834;2023-02-25T06:43:35;8.77;;;1.95;;
76113;SDS011;64845;53.086;5.834;2023-02-25T06:46:04;6.43;;;1.00;;
76113;SDS011;64845;53.086;5.834;2023-02-25T06:48:31;14.05;;;1.25;;
76113;SDS011;64845;53.086;5.834;2023-02-25T06:50:56;5.00;;;0.98;;
76113;SDS011;64845;53.086;5.834;2023-02-25T06:53:22;10.55;;;1.58;;
76113;SDS011;64845;53.086;5.834;2023-02-25T06:55:48;5.32;;;1.10;;
76113;SDS011;64845;53.086;5.834;2023-02-25T06:58:13;5.13;;;1.42;;
76113;SDS011;64845;53.086;5.834;2023-02-25T07:00:39;10.95;;;1.40;;
76113;SDS011;64845;53.086;5.834;2023-02-25T07:03:09;9.00;;;1.73;;
76113;SDS011;64845;53.086;5.834;2023-02-25T07:05:35;6.97;;;1.48;;
76113;SDS011;64845;53.086;5.834;2023-02-25T07:08:00;7.70;;;1.08;;
76113;SDS011;64845;53.086;5.834;2023-02-25T07:10:26;9.68;;;1.42;;
76113;SDS011;64845;53.086;5.834;2023-02-25T07:12:51;8.02;;;1.23;;
76113;SDS011;64845;53.086;5.834;2023-02-25T07:15:17;16.58;;;1.85;;
76113;SDS011;64845;53.086;5.834;2023-02-25T07:17:43;10.40;;;1.92;;
76113;SDS011;64845;53.086;5.834;2023-02-25T07:20:09;16.00;;;1.90;;
76113;SDS011;64845;53.086;5.834;2023-02-25T07:22:35;13.73;;;1.38;;
76113;SDS011;64845;53.086;5.834;2023-02-25T07:25:00;14.95;;;2.13;;
76113;SDS011;64845;53.086;5.834;2023-02-25T07:27:25;19.20;;;2.30;;
76113;SDS011;64845;53.086;5.834;2023-02-25T07:29:51;9.73;;;1.50;;
76113;SDS011;64845;53.086;5.834;2023-02-25T07:32:16;17.05;;;1.70;;
76113;SDS011;64845;53.086;5.834;2023-02-25T07:34:42;10.07;;;1.40;;
76113;SDS011;64845;53.086;5.834;2023-02-25T07:37:07;15.75;;;1.83;;
76113;SDS011;64845;53.086;5.834;2023-02-25T07:39:33;7.55;;;1.52;;
76113;SDS011;64845;53.086;5.834;2023-02-25T07:41:58;9.63;;;1.58;;
76113;SDS011;64845;53.086;5.834;2023-02-25T07:44:23;8.00;;;1.13;;
76113;SDS011;64845;53.086;5.834;2023-02-25T07:46:49;5.80;;;1.40;;
76113;SDS011;64845;53.086;5.834;2023-02-25T07:49:14;8.25;;;1.75;;
76113;SDS011;64845;53.086;5.834;2023-02-25T07:51:39;6.18;;;1.25;;
76113;SDS011;64845;53.086;5.834;2023-02-25T07:54:05;7.13;;;2.33;;
76113;SDS011;64845;53.086;5.834;2023-02-25T07:56:30;8.23;;;1.35;;
76113;SDS011;64845;53.086;5.834;2023-02-25T07:58:56;8.63;;;1.20;;
76113;SDS011;64845;53.086;5.834;2023-02-25T08:01:22;6.50;;;1.20;;
76113;SDS011;64845;53.086;5.834;2023-02-25T08:03:51;8.20;;;1.52;;
76113;SDS011;64845;53.086;5.834;2023-02-25T08:06:18;11.50;;;1.55;;
76113;SDS011;64845;53.086;5.834;2023-02-25T08:08:45;8.18;;;1.50;;
76113;SDS011;64845;53.086;5.834;2023-02-25T08:11:12;11.07;;;1.90;;
76113;SDS011;64845;53.086;5.834;2023-02-25T08:13:38;12.20;;;1.90;;
76113;SDS011;64845;53.086;5.834;2023-02-25T08:16:06;6.28;;;1.58;;
76113;SDS011;64845;53.086;5.834;2023-02-25T08:18:33;13.45;;;2.90;;
76113;SDS011;64845;53.086;5.834;2023-02-25T08:20:58;11.27;;;1.67;;
76113;SDS011;64845;53.086;5.834;2023-02-25T08:23:24;10.75;;;1.30;;
76113;SDS011;64845;53.086;5.834;2023-02-25T08:25:53;11.98;;;1.77;;
76113;SDS011;64845;53.086;5.834;2023-02-25T08:28:23;11.40;;;1.40;;
76113;SDS011;64845;53.086;5.834;2023-02-25T08:30:50;12.48;;;2.17;;
76113;SDS011;64845;53.086;5.834;2023-02-25T08:33:16;11.15;;;2.00;;
76113;SDS011;64845;53.086;5.834;2023-02-25T08:35:42;12.00;;;1.58;;
76113;SDS011;64845;53.086;5.834;2023-02-25T08:38:09;10.40;;;1.80;;
76113;SDS011;64845;53.086;5.834;2023-02-25T08:40:34;26.77;;;2.05;;
76113;SDS011;64845;53.086;5.834;2023-02-25T08:43:00;9.80;;;1.98;;
76113;SDS011;64845;53.086;5.834;2023-02-25T08:45:25;13.18;;;1.48;;
76113;SDS011;64845;53.086;5.834;2023-02-25T08:47:51;11.32;;;1.75;;
76113;SDS011;64845;53.086;5.834;2023-02-25T08:50:17;10.52;;;1.92;;
76113;SDS011;64845;53.086;5.834;2023-02-25T08:52:43;14.02;;;1.58;;
76113;SDS011;64845;53.086;5.834;2023-02-25T08:55:08;7.70;;;1.58;;
76113;SDS011;64845;53.086;5.834;2023-02-25T08:57:35;6.63;;;1.60;;
76113;SDS011;64845;53.086;5.834;2023-02-25T09:00:02;11.23;;;1.92;;
76113;SDS011;64845;53.086;5.834;2023-02-25T09:02:30;9.98;;;2.30;;
76113;SDS011;64845;53.086;5.834;2023-02-25T09:04:55;5.63;;;1.70;;
76113;SDS011;64845;53.086;5.834;2023-02-25T09:07:21;14.27;;;1.67;;
76113;SDS011;64845;53.086;5.834;2023-02-25T09:09:46;14.63;;;1.67;;
76113;SDS011;64845;53.086;5.834;2023-02-25T09:12:12;11.63;;;1.70;;
76113;SDS011;64845;53.086;5.834;2023-02-25T09:14:37;15.15;;;2.08;;
76113;SDS011;64845;53.086;5.834;2023-02-25T09:17:03;10.10;;;1.67;;
76113;SDS011;64845;53.086;5.834;2023-02-25T09:19:30;7.47;;;1.38;;
76113;SDS011;64845;53.086;5.834;2023-02-25T09:21:56;7.07;;;1.38;;
76113;SDS011;64845;53.086;5.834;2023-02-25T09:24:22;8.20;;;1.52;;
76113;SDS011;64845;53.086;5.834;2023-02-25T09:26:48;14.85;;;1.67;;
76113;SDS011;64845;53.086;5.834;2023-02-25T09:29:13;17.50;;;1.88;;
76113;SDS011;64845;53.086;5.834;2023-02-25T09:31:39;8.02;;;1.40;;
76113;SDS011;64845;53.086;5.834;2023-02-25T09:34:05;7.63;;;1.63;;
76113;SDS011;64845;53.086;5.834;2023-02-25T09:36:33;7.93;;;2.10;;
76113;SDS011;64845;53.086;5.834;2023-02-25T09:38:58;11.30;;;1.88;;
76113;SDS011;64845;53.086;5.834;2023-02-25T09:41:32;10.10;;;1.48;;
76113;SDS011;64845;53.086;5.834;2023-02-25T09:44:09;11.68;;;1.75;;
76113;SDS011;64845;53.086;5.834;2023-02-25T09:46:39;9.52;;;1.60;;
76113;SDS011;64845;53.086;5.834;2023-02-25T09:49:17;11.77;;;1.73;;
76113;SDS011;64845;53.086;5.834;2023-02-25T09:52:04;17.50;;;2.67;;
76113;SDS011;64845;53.086;5.834;2023-02-25T09:54:41;16.33;;;1.95;;
76113;SDS011;64845;53.086;5.834;2023-02-25T09:57:09;8.35;;;2.05;;
76113;SDS011;64845;53.086;5.834;2023-02-25T09:59:39;16.10;;;1.75;;
76113;SDS011;64845;53.086;5.834;2023-02-25T10:04:50;8.95;;;1.83;;
76113;SDS011;64845;53.086;5.834;2023-02-25T10:07:27;9.27;;;1.67;;
76113;SDS011;64845;53.086;5.834;2023-02-25T10:12:56;11.57;;;2.60;;
76113;SDS011;64845;53.086;5.834;2023-02-25T10:18:24;10.00;;;2.17;;
76113;SDS011;64845;53.086;5.834;2023-02-25T10:23:34;18.58;;;2.10;;
76113;SDS011;64845;53.086;5.834;2023-02-25T10:26:15;11.90;;;1.90;;
76113;SDS011;64845;53.086;5.834;2023-02-25T10:28:48;11.93;;;1.52;;
76113;SDS011;64845;53.086;5.834;2023-02-25T10:31:19;11.00;;;1.80;;
76113;SDS011;64845;53.086;5.834;2023-02-25T10:33:47;12.98;;;1.77;;
76113;SDS011;64845;53.086;5.834;2023-02-25T10:36:15;6.30;;;1.20;;
76113;SDS011;64845;53.086;5.834;2023-02-25T10:38:47;11.40;;;2.17;;
76113;SDS011;64845;53.086;5.834;2023-02-25T10:41:15;9.88;;;2.47;;
76113;SDS011;64845;53.086;5.834;2023-02-25T10:43:42;6.15;;;1.80;;
76113;SDS011;64845;53.086;5.834;2023-02-25T10:48:40;10.40;;;1.90;;
76113;SDS011;64845;53.086;5.834;2023-02-25T10:51:13;7.07;;;1.45;;
76113;SDS011;64845;53.086;5.834;2023-02-25T10:53:40;6.45;;;1.13;;
76113;SDS011;64845;53.086;5.834;2023-02-25T10:56:15;10.60;;;2.15;;
76113;SDS011;64845;53.086;5.834;2023-02-25T10:58:44;8.55;;;1.25;;
76113;SDS011;64845;53.086;5.834;2023-02-25T11:01:28;7.05;;;2.20;;
76113;SDS011;64845;53.086;5.834;2023-02-25T11:04:03;9.30;;;1.60;;
76113;SDS011;64845;53.086;5.834;2023-02-25T11:06:35;6.28;;;1.40;;
76113;SDS011;64845;53.086;5.834;2023-02-25T11:09:09;8.88;;;1.52;;
76113;SDS011;64845;53.086;5.834;2023-02-25T11:11:54;9.18;;;1.52;;
76113;SDS011;64845;53.086;5.834;2023-02-25T11:14:33;8.38;;;1.55;;
76113;SDS011;64845;53.086;5.834;2023-02-25T11:17:10;5.75;;;1.70;;
76113;SDS011;64845;53.086;5.834;2023-02-25T11:19:40;7.80;;;1.13;;
76113;SDS011;64845;53.086;5.834;2023-02-25T11:22:10;7.13;;;1.88;;
76113;SDS011;64845;53.086;5.834;2023-02-25T11:27:07;9.27;;;1.90;;
76113;SDS011;64845;53.086;5.834;2023-02-25T11:29:49;11.95;;;1.65;;
76113;SDS011;64845;53.086;5.834;2023-02-25T11:32:16;7.82;;;1.80;;
76113;SDS011;64845;53.086;5.834;2023-02-25T11:34:48;8.65;;;1.35;;
76113;SDS011;64845;53.086;5.834;2023-02-25T11:37:39;8.38;;;1.60;;
76113;SDS011;64845;53.086;5.834;2023-02-25T11:45:30;13.10;;;2.15;;
76113;SDS011;64845;53.086;5.834;2023-02-25T11:47:58;9.77;;;1.98;;
76113;SDS011;64845;53.086;5.834;2023-02-25T11:50:27;15.63;;;2.10;;
76113;SDS011;64845;53.086;5.834;2023-02-25T11:53:09;6.35;;;1.30;;
76113;SDS011;64845;53.086;5.834;2023-02-25T11:58:53;10.52;;;1.73;;
76113;SDS011;64845;53.086;5.834;2023-02-25T12:16:15;13.63;;;2.00;;
76113;SDS011;64845;53.086;5.834;2023-02-25T12:26:51;12.75;;;1.75;;
76113;SDS011;64845;53.086;5.834;2023-02-25T12:32:40;7.32;;;1.60;;
76113;SDS011;64845;53.086;5.834;2023-02-25T12:41:15;12.48;;;1.75;;
76113;SDS011;64845;53.086;5.834;2023-02-25T12:44:11;7.95;;;1.50;;
76113;SDS011;64845;53.086;5.834;2023-02-25T12:49:59;7.50;;;1.58;;
76113;SDS011;64845;53.086;5.834;2023-02-25T12:55:27;10.70;;;1.63;;
76113;SDS011;64845;53.086;5.834;2023-02-25T13:00:40;8.25;;;1.50;;
76113;SDS011;64845;53.086;5.834;2023-02-25T13:30:53;6.47;;;1.63;;
76113;SDS011;64845;53.086;5.834;2023-02-25T13:33:29;10.73;;;2.07;;
76113;SDS011;64845;53.086;5.834;2023-02-25T13:47:50;11.05;;;2.17;;
76113;SDS011;64845;53.086;5.834;2023-02-25T13:50:44;10.15;;;1.83;;
76113;SDS011;64845;53.086;5.834;2023-02-25T14:01:45;13.48;;;1.85;;
76113;SDS011;64845;53.086;5.834;2023-02-25T14:07:25;13.02;;;1.80;;
76113;SDS011;64845;53.086;5.834;2023-02-25T14:10:28;13.02;;;1.90;;
76113;SDS011;64845;53.086;5.834;2023-02-25T14:18:58;15.13;;;2.78;;
76113;SDS011;64845;53.086;5.834;2023-02-25T14:34:54;9.70;;;1.80;;
76113;SDS011;64845;53.086;5.834;2023-02-25T14:37:32;8.40;;;1.40;;
76113;SDS011;64845;53.086;5.834;2023-02-25T14:43:02;11.07;;;1.83;;
76113;SDS011;64845;53.086;5.834;2023-02-25T14:45:43;12.82;;;1.50;;
76113;SDS011;64845;53.086;5.834;2023-02-25T14:48:16;4.68;;;1.10;;
76113;SDS011;64845;53.086;5.834;2023-02-25T15:01:42;10.82;;;2.00;;
76113;SDS011;64845;53.086;5.834;2023-02-25T15:15:23;7.97;;;1.90;;
76113;SDS011;64845;53.086;5.834;2023-02-25T15:20:46;11.35;;;1.73;;
76113;SDS011;64845;53.086;5.834;2023-02-25T15:23:13;10.82;;;1.40;;
76113;SDS011;64845;53.086;5.834;2023-02-25T15:38:52;6.93;;;1.60;;
76113;SDS011;64845;53.086;5.834;2023-02-25T15:43:51;5.85;;;1.30;;
76113;SDS011;64845;53.086;5.834;2023-02-25T15:54:07;5.57;;;1.98;;
76113;SDS011;64845;53.086;5.834;2023-02-25T15:56:47;11.05;;;1.95;;
76113;SDS011;64845;53.086;5.834;2023-02-25T16:01:58;6.40;;;1.80;;
76113;SDS011;64845;53.086;5.834;2023-02-25T16:04:43;12.80;;;2.10;;
76113;SDS011;64845;53.086;5.834;2023-02-25T16:07:12;8.70;;;1.73;;
76113;SDS011;64845;53.086;5.834;2023-02-25T16:09:43;8.57;;;1.80;;
76113;SDS011;64845;53.086;5.834;2023-02-25T16:12:13;12.50;;;1.70;;
76113;SDS011;64845;53.086;5.834;2023-02-25T16:14:39;11.25;;;1.50;;
76113;SDS011;64845;53.086;5.834;2023-02-25T16:19:52;9.70;;;1.88;;
76113;SDS011;64845;53.086;5.834;2023-02-25T16:22:23;9.98;;;1.75;;
76113;SDS011;64845;53.086;5.834;2023-02-25T16:24:52;14.13;;;1.90;;
76113;SDS011;64845;53.086;5.834;2023-02-25T16:27:27;14.52;;;1.90;;
76113;SDS011;64845;53.086;5.834;2023-02-25T16:35:26;5.75;;;1.40;;
76113;SDS011;64845;53.086;5.834;2023-02-25T16:40:43;13.20;;;1.95;;
76113;SDS011;64845;53.086;5.834;2023-02-25T16:43:13;8.45;;;1.48;;
76113;SDS011;64845;53.086;5.834;2023-02-25T16:45:42;14.45;;;1.55;;
76113;SDS011;64845;53.086;5.834;2023-02-25T16:48:21;9.18;;;1.75;;
76113;SDS011;64845;53.086;5.834;2023-02-25T16:51:20;17.08;;;2.38;;
76113;SDS011;64845;53.086;5.834;2023-02-25T16:53:55;11.95;;;2.80;;
76113;SDS011;64845;53.086;5.834;2023-02-25T16:56:23;12.00;;;1.98;;
76113;SDS011;64845;53.086;5.834;2023-02-25T17:01:29;11.13;;;1.65;;
76113;SDS011;64845;53.086;5.834;2023-02-25T17:04:38;14.10;;;2.33;;
76113;SDS011;64845;53.086;5.834;2023-02-25T17:09:35;9.07;;;1.33;;
76113;SDS011;64845;53.086;5.834;2023-02-25T17:12:09;11.10;;;1.83;;
76113;SDS011;64845;53.086;5.834;2023-02-25T17:14:39;7.82;;;1.55;;
76113;SDS011;64845;53.086;5.834;2023-02-25T17:17:14;9.73;;;1.75;;
76113;SDS011;64845;53.086;5.834;2023-02-25T17:19:49;5.43;;;1.52;;
76113;SDS011;64845;53.086;5.834;2023-02-25T17:22:19;9.63;;;1.70;;
76113;SDS011;64845;53.086;5.834;2023-02-25T17:24:46;7.80;;;1.30;;
76113;SDS011;64845;53.086;5.834;2023-02-25T17:27:14;7.97;;;1.52;;
76113;SDS011;64845;53.086;5.834;2023-02-25T17:29:41;5.78;;;1.63;;
76113;SDS011;64845;53.086;5.834;2023-02-25T17:32:11;10.05;;;1.48;;
76113;SDS011;64845;53.086;5.834;2023-02-25T17:34:52;8.15;;;2.20;;
76113;SDS011;64845;53.086;5.834;2023-02-25T17:37:19;13.77;;;1.20;;
76113;SDS011;64845;53.086;5.834;2023-02-25T17:39:46;12.38;;;2.35;;
76113;SDS011;64845;53.086;5.834;2023-02-25T17:42:32;10.88;;;1.67;;
76113;SDS011;64845;53.086;5.834;2023-02-25T17:45:00;13.77;;;2.10;;
76113;SDS011;64845;53.086;5.834;2023-02-25T17:47:32;6.35;;;1.58;;
76113;SDS011;64845;53.086;5.834;2023-02-25T17:49:58;15.27;;;1.88;;
76113;SDS011;64845;53.086;5.834;2023-02-25T17:52:47;5.10;;;1.35;;
76113;SDS011;64845;53.086;5.834;2023-02-25T17:55:26;7.93;;;1.70;;
76113;SDS011;64845;53.086;5.834;2023-02-25T17:57:57;14.40;;;1.63;;
76113;SDS011;64845;53.086;5.834;2023-02-25T18:03:32;16.83;;;2.03;;
76113;SDS011;64845;53.086;5.834;2023-02-25T18:05:58;8.65;;;1.40;;
76113;SDS011;64845;53.086;5.834;2023-02-25T18:08:29;8.52;;;1.60;;
76113;SDS011;64845;53.086;5.834;2023-02-25T18:10:57;3.95;;;1.38;;
76113;SDS011;64845;53.086;5.834;2023-02-25T18:13:29;9.25;;;1.60;;
76113;SDS011;64845;53.086;5.834;2023-02-25T18:16:41;9.68;;;1.40;;
76113;SDS011;64845;53.086;5.834;2023-02-25T18:19:01;7.82;;;1.60;;
76113;SDS011;64845;53.086;5.834;2023-02-25T18:21:31;7.32;;;1.65;;
76113;SDS011;64845;53.086;5.834;2023-02-25T18:24:05;8.85;;;1.95;;
76113;SDS011;64845;53.086;5.834;2023-02-25T18:26:31;8.48;;;1.80;;
76113;SDS011;64845;53.086;5.834;2023-02-25T18:28:56;9.65;;;2.05;;
76113;SDS011;64845;53.086;5.834;2023-02-25T18:31:21;7.93;;;1.23;;
76113;SDS011;64845;53.086;5.834;2023-02-25T18:33:47;8.32;;;1.63;;
76113;SDS011;64845;53.086;5.834;2023-02-25T18:36:15;8.55;;;1.55;;
76113;SDS011;64845;53.086;5.834;2023-02-25T18:38:47;9.98;;;1.75;;
76113;SDS011;64845;53.086;5.834;2023-02-25T18:41:13;7.20;;;1.70;;
76113;SDS011;64845;53.086;5.834;2023-02-25T18:43:40;7.65;;;2.10;;
76113;SDS011;64845;53.086;5.834;2023-02-25T18:46:07;5.75;;;1.77;;
76113;SDS011;64845;53.086;5.834;2023-02-25T18:48:32;7.38;;;1.65;;